createdAt,value
2022-11-27T00:01:28.174Z,2.30
2022-11-27T00:03:56.723Z,2.70
2022-11-27T00:06:26.391Z,2.20
2022-11-27T00:08:55.515Z,2.03
2022-11-27T00:11:24.860Z,2.10
2022-11-27T00:13:53.125Z,2.15
2022-11-27T00:16:22.047Z,2.05
2022-11-27T00:18:50.714Z,2.15
2022-11-27T00:21:24.599Z,2.03
2022-11-27T00:23:57.443Z,2.22
2022-11-27T00:26:27.604Z,2.47
2022-11-27T00:28:56.659Z,2.25
2022-11-27T00:31:29.616Z,2.10
2022-11-27T00:34:00.061Z,2.03
2022-11-27T00:36:32.290Z,1.83
2022-11-27T00:39:03.017Z,1.90
2022-11-27T00:41:31.705Z,1.77
2022-11-27T00:44:00.243Z,1.73
2022-11-27T00:46:34.646Z,2.42
2022-11-27T00:49:05.804Z,1.83
2022-11-27T00:51:34.836Z,2.30
2022-11-27T00:54:02.895Z,1.95
2022-11-27T00:56:34.297Z,2.05
2022-11-27T00:59:02.158Z,1.88
2022-11-27T01:01:34.022Z,2.10
2022-11-27T01:04:03.441Z,1.67
2022-11-27T01:06:31.572Z,2.33
2022-11-27T01:09:00.736Z,1.70
2022-11-27T01:11:30.616Z,1.55
2022-11-27T01:14:01.915Z,1.70
2022-11-27T01:16:32.379Z,1.70
2022-11-27T01:19:01.661Z,1.48
2022-11-27T01:21:32.298Z,1.90
2022-11-27T01:24:00.971Z,1.83
2022-11-27T01:26:28.765Z,1.73
2022-11-27T01:28:59.336Z,2.03
2022-11-27T01:31:30.870Z,1.60
2022-11-27T01:34:01.231Z,1.90
2022-11-27T01:36:30.300Z,1.63
2022-11-27T01:39:00.212Z,1.88
2022-11-27T01:41:34.267Z,1.73
2022-11-27T01:44:25.954Z,1.70
2022-11-27T01:47:41.939Z,1.65
2022-11-27T01:50:15.756Z,1.55
2022-11-27T01:52:50.705Z,1.85
2022-11-27T01:55:29.900Z,1.90
2022-11-27T01:58:21.839Z,2.07
2022-11-27T02:00:50.385Z,1.97
2022-11-27T02:03:20.473Z,1.67
2022-11-27T02:05:48.566Z,1.50
2022-11-27T02:08:18.279Z,1.65
2022-11-27T02:10:46.296Z,1.45
2022-11-27T02:13:35.578Z,1.50
2022-11-27T02:16:04.949Z,1.27
2022-11-27T02:18:43.388Z,1.40
2022-11-27T02:21:16.507Z,1.20
2022-11-27T02:24:11.722Z,1.50
2022-11-27T02:27:13.557Z,1.42
2022-11-27T02:29:46.471Z,1.60
2022-11-27T02:32:34.448Z,1.42
2022-11-27T02:35:20.292Z,1.50
2022-11-27T02:37:58.115Z,1.58
2022-11-27T02:40:26.663Z,1.40
2022-11-27T02:43:08.026Z,1.40
2022-11-27T02:45:48.485Z,1.48
2022-11-27T02:48:23.398Z,1.30
2022-11-27T02:50:55.821Z,1.52
2022-11-27T02:53:39.699Z,1.45
2022-11-27T02:56:13.545Z,1.27
2022-11-27T02:58:43.025Z,1.48
2022-11-27T03:01:14.445Z,1.30
2022-11-27T03:03:46.732Z,1.50
2022-11-27T03:06:22.979Z,1.38
2022-11-27T03:09:03.762Z,1.30
2022-11-27T03:11:32.208Z,1.25
2022-11-27T03:14:04.702Z,1.30
2022-11-27T03:17:05.506Z,1.55
2022-11-27T03:20:21.904Z,1.40
2022-11-27T03:22:55.769Z,1.25
2022-11-27T03:25:25.122Z,1.13
2022-11-27T03:28:00.999Z,1.20
2022-11-27T03:30:30.533Z,1.70
2022-11-27T03:32:57.900Z,1.15
2022-11-27T03:35:29.358Z,1.10
2022-11-27T03:37:58.276Z,1.45
2022-11-27T03:40:47.584Z,1.30
2022-11-27T03:43:24.096Z,1.35
2022-11-27T03:46:04.063Z,1.20
2022-11-27T03:49:09.481Z,1.20
2022-11-27T03:52:04.320Z,1.33
2022-11-27T03:54:54.624Z,1.70
2022-11-27T03:57:47.421Z,1.60
2022-11-27T04:00:15.661Z,1.20
2022-11-27T04:02:50.475Z,1.70
2022-11-27T04:05:18.434Z,1.20
2022-11-27T04:07:47.410Z,1.63
2022-11-27T04:10:17.151Z,1.63
2022-11-27T04:12:46.151Z,1.67
2022-11-27T04:15:13.721Z,1.40
2022-11-27T04:17:42.001Z,1.13
2022-11-27T04:20:13.495Z,1.10
2022-11-27T04:22:42.609Z,1.02
2022-11-27T04:25:11.075Z,1.30
2022-11-27T04:27:39.435Z,1.40
2022-11-27T04:30:10.523Z,1.50
2022-11-27T04:32:39.556Z,1.45
2022-11-27T04:35:08.438Z,1.60
2022-11-27T04:37:36.357Z,1.13
2022-11-27T04:40:08.073Z,1.10
2022-11-27T04:42:36.461Z,1.55
2022-11-27T04:45:04.230Z,1.42
2022-11-27T04:47:31.576Z,0.98
2022-11-27T04:49:59.759Z,1.10
2022-11-27T04:52:28.000Z,1.17
2022-11-27T04:55:00.280Z,1.20
2022-11-27T04:57:28.335Z,1.60
2022-11-27T04:59:56.400Z,1.20
2022-11-27T05:02:24.207Z,1.45
2022-11-27T05:04:51.919Z,1.30
2022-11-27T05:07:19.266Z,1.38
2022-11-27T05:09:46.798Z,1.08
2022-11-27T05:12:14.065Z,1.20
2022-11-27T05:14:41.834Z,1.45
2022-11-27T05:17:10.235Z,1.40
2022-11-27T05:19:37.670Z,1.63
2022-11-27T05:22:05.524Z,1.20
2022-11-27T05:24:34.265Z,1.27
2022-11-27T05:27:02.144Z,1.15
2022-11-27T05:29:31.688Z,1.40
2022-11-27T05:31:59.126Z,1.50
2022-11-27T05:34:26.557Z,1.42
2022-11-27T05:36:54.465Z,1.40
2022-11-27T05:39:22.746Z,1.20
2022-11-27T05:41:50.325Z,1.42
2022-11-27T05:44:18.526Z,1.00
2022-11-27T05:46:46.227Z,1.38
2022-11-27T05:49:16.083Z,1.27
2022-11-27T05:51:50.365Z,1.25
2022-11-27T05:54:19.900Z,1.23
2022-11-27T05:56:47.378Z,1.45
2022-11-27T05:59:16.777Z,1.38
2022-11-27T06:01:44.365Z,1.25
2022-11-27T06:04:12.580Z,1.25
2022-11-27T06:06:39.962Z,1.20
2022-11-27T06:09:12.477Z,1.55
2022-11-27T06:11:42.548Z,1.63
2022-11-27T06:14:11.571Z,1.30
2022-11-27T06:16:40.314Z,1.50
2022-11-27T06:19:10.117Z,1.73
2022-11-27T06:21:37.587Z,1.52
2022-11-27T06:24:05.977Z,1.60
2022-11-27T06:26:33.733Z,1.40
2022-11-27T06:29:01.777Z,1.65
2022-11-27T06:31:32.608Z,1.27
2022-11-27T06:34:00.889Z,1.45
2022-11-27T06:36:33.516Z,1.60
2022-11-27T06:39:04.455Z,1.25
2022-11-27T06:41:32.518Z,1.70
2022-11-27T06:44:01.253Z,1.42
2022-11-27T06:47:08.281Z,1.40
2022-11-27T06:49:39.920Z,1.25
2022-11-27T06:52:10.756Z,1.60
2022-11-27T06:54:41.584Z,1.38
2022-11-27T06:57:12.120Z,1.20
2022-11-27T06:59:39.787Z,1.30
2022-11-27T07:02:21.540Z,1.60
2022-11-27T07:04:57.339Z,1.42
2022-11-27T07:10:41.568Z,1.67
2022-11-27T07:13:34.073Z,1.98
2022-11-27T07:16:05.123Z,2.20
2022-11-27T07:18:36.417Z,2.00
2022-11-27T07:21:04.505Z,1.83
2022-11-27T07:23:32.781Z,1.90
2022-11-27T07:26:09.598Z,2.00
2022-11-27T07:28:37.966Z,1.80
2022-11-27T07:31:11.441Z,2.08
2022-11-27T07:33:45.353Z,1.90
2022-11-27T07:36:18.670Z,1.85
2022-11-27T07:38:47.602Z,2.33
2022-11-27T07:41:18.026Z,2.45
2022-11-27T07:43:46.991Z,2.03
2022-11-27T07:46:21.432Z,2.70
2022-11-27T07:48:49.813Z,2.97
2022-11-27T07:51:20.318Z,3.53
2022-11-27T07:53:56.793Z,2.50
2022-11-27T07:56:28.389Z,2.13
2022-11-27T07:58:58.361Z,2.70
2022-11-27T08:01:25.851Z,2.90
2022-11-27T08:03:56.587Z,2.47
2022-11-27T08:06:26.335Z,2.65
2022-11-27T08:08:56.807Z,2.63
2022-11-27T08:11:28.681Z,2.17
2022-11-27T08:14:03.252Z,2.20
2022-11-27T08:16:34.291Z,2.35
2022-11-27T14:49:57.891Z,4.60
2022-11-27T14:52:26.865Z,4.45
2022-11-27T14:54:55.634Z,4.45
2022-11-27T14:57:31.073Z,4.43
2022-11-27T15:00:20.260Z,4.63
2022-11-27T15:02:51.765Z,4.70
2022-11-27T15:05:27.816Z,4.70
2022-11-27T15:07:58.816Z,5.22
2022-11-27T15:58:13.132Z,4.95
2022-11-27T16:00:40.653Z,4.45
2022-11-27T16:08:02.372Z,5.50
2022-11-27T16:10:29.743Z,4.70
2022-11-27T16:12:58.781Z,5.47
2022-11-27T16:15:30.171Z,5.78
2022-11-27T16:18:00.903Z,5.35
2022-11-27T16:20:29.156Z,5.72
2022-11-27T16:22:57.510Z,6.30
2022-11-27T16:25:25.477Z,6.13
2022-11-27T16:27:56.672Z,6.50
2022-11-27T16:30:26.892Z,6.03
2022-11-27T16:32:54.136Z,6.53
2022-11-27T16:35:21.641Z,6.38
2022-11-27T16:37:49.182Z,6.90
2022-11-27T16:40:19.284Z,5.90
2022-11-27T16:42:46.566Z,6.68
2022-11-27T16:45:13.913Z,6.60
2022-11-27T16:47:41.102Z,6.78
2022-11-27T16:50:10.039Z,6.95
2022-11-27T16:55:05.228Z,8.95
2022-11-27T16:57:32.712Z,7.82
2022-11-27T17:00:00.291Z,7.65
2022-11-27T17:02:28.783Z,7.95
2022-11-27T17:04:56.234Z,7.55
2022-11-27T17:07:23.673Z,8.55
2022-11-27T17:09:50.971Z,8.73
2022-11-27T17:12:18.228Z,9.30
2022-11-27T17:14:47.190Z,7.85
2022-11-27T17:17:15.380Z,9.07
2022-11-27T17:22:26.777Z,11.18
2022-11-27T17:24:57.534Z,11.98
2022-11-27T17:27:24.936Z,11.00
2022-11-27T17:29:54.771Z,11.73
2022-11-27T17:34:53.072Z,9.27
2022-11-27T17:37:20.809Z,9.35
2022-11-27T17:39:48.315Z,9.60
2022-11-27T17:42:21.070Z,8.60
2022-11-27T17:44:50.721Z,8.70
2022-11-27T17:47:17.991Z,8.25
2022-11-27T17:49:45.413Z,9.27
2022-11-27T17:52:13.146Z,8.13
2022-11-27T17:54:41.107Z,8.35
2022-11-27T17:57:13.703Z,8.45
2022-11-27T17:59:41.413Z,8.45
2022-11-27T18:02:11.579Z,8.55
2022-11-27T18:04:39.096Z,8.50
2022-11-27T18:07:06.574Z,8.65
2022-11-27T18:09:33.897Z,9.10
2022-11-27T18:12:01.164Z,7.93
2022-11-27T18:14:29.843Z,8.43
2022-11-27T18:17:04.000Z,7.72
2022-11-27T18:19:31.987Z,8.43
2022-11-27T18:22:00.184Z,8.13
2022-11-27T18:24:27.649Z,8.05
2022-11-27T18:27:11.059Z,8.90
2022-11-27T18:29:42.277Z,8.23
2022-11-27T18:32:11.833Z,9.57
2022-11-27T18:34:40.226Z,9.13
2022-11-27T18:37:07.643Z,8.82
2022-11-27T18:39:36.260Z,8.73
2022-11-27T18:42:05.165Z,8.45
2022-11-27T18:44:37.330Z,8.68
2022-11-27T18:47:11.011Z,8.02
2022-11-27T18:49:40.280Z,7.88
2022-11-27T18:52:08.954Z,8.63
2022-11-27T18:54:37.328Z,8.38
2022-11-27T18:57:07.096Z,10.20
2022-11-27T18:59:34.640Z,10.30
2022-11-27T19:02:05.842Z,9.32
2022-11-27T19:04:36.063Z,9.13
2022-11-27T19:07:03.936Z,8.82
2022-11-27T19:09:33.694Z,8.75
2022-11-27T19:12:01.129Z,8.88
2022-11-27T19:14:29.323Z,8.80
2022-11-27T19:16:56.870Z,8.25
2022-11-27T19:19:53.377Z,7.93
2022-11-27T19:22:13.421Z,8.13
2022-11-27T19:24:43.716Z,8.10
2022-11-27T19:27:11.038Z,8.18
2022-11-27T19:29:38.342Z,8.23
2022-11-27T19:32:05.688Z,8.35
2022-11-27T19:34:33.128Z,8.27
2022-11-27T19:37:03.039Z,9.15
2022-11-27T19:39:30.448Z,9.93
2022-11-27T19:41:57.961Z,8.85
2022-11-27T19:44:29.307Z,8.63
2022-11-27T19:46:57.074Z,8.65
2022-11-27T19:49:26.790Z,8.85
2022-11-27T19:51:54.168Z,8.48
2022-11-27T19:54:21.996Z,9.30
2022-11-27T19:56:51.029Z,9.25
2022-11-27T19:59:24.241Z,8.73
2022-11-27T20:01:55.121Z,8.95
2022-11-27T20:04:27.957Z,8.45
2022-11-27T20:06:55.338Z,8.77
2022-11-27T20:09:26.114Z,9.27
2022-11-27T20:11:53.563Z,8.82
2022-11-27T20:14:21.155Z,10.00
2022-11-27T20:16:51.227Z,10.43
2022-11-27T20:19:18.967Z,10.00
2022-11-27T20:21:46.617Z,9.60
2022-11-27T20:24:14.758Z,9.50
2022-11-27T20:26:43.221Z,8.68
2022-11-27T20:29:15.941Z,8.60
2022-11-27T20:31:46.078Z,9.98
2022-11-27T20:34:20.331Z,11.65
2022-11-27T20:36:48.916Z,11.40
2022-11-27T20:39:21.969Z,9.57
2022-11-27T20:44:19.768Z,10.98
2022-11-27T20:46:47.398Z,10.27
2022-11-27T20:49:15.293Z,10.00
2022-11-27T20:51:43.738Z,9.25
2022-11-27T20:54:11.464Z,8.63
2022-11-27T20:56:41.270Z,8.98
2022-11-27T20:59:10.080Z,8.93
2022-11-27T21:01:38.135Z,8.73
2022-11-27T21:04:11.114Z,7.80
2022-11-27T21:06:43.761Z,9.70
2022-11-27T21:09:14.174Z,8.32
2022-11-27T21:11:43.739Z,8.98
2022-11-27T21:14:13.859Z,8.90
2022-11-27T21:16:46.919Z,8.05
2022-11-27T21:19:26.572Z,8.57
2022-11-27T21:21:56.696Z,7.70
2022-11-27T21:24:28.153Z,7.50
2022-11-27T21:26:56.797Z,7.90
2022-11-27T21:29:27.493Z,8.13
2022-11-27T21:31:55.348Z,7.75
2022-11-27T21:34:23.772Z,8.63
2022-11-27T21:36:51.748Z,7.38
2022-11-27T21:39:22.534Z,7.32
2022-11-27T21:41:52.339Z,7.82
2022-11-27T21:44:21.856Z,7.57
2022-11-27T21:46:50.372Z,7.55
2022-11-27T21:49:20.235Z,7.78
2022-11-27T21:51:51.295Z,6.93
2022-11-27T21:54:19.682Z,7.53
2022-11-27T21:56:50.695Z,7.72
2022-11-27T21:59:18.293Z,8.60
2022-11-27T22:01:46.230Z,7.80
2022-11-27T22:04:13.634Z,8.25
2022-11-27T22:06:42.974Z,7.85
2022-11-27T22:09:15.029Z,7.78
2022-11-27T22:11:45.099Z,7.95
2022-11-27T22:14:13.855Z,7.55
2022-11-27T22:16:45.675Z,7.65
2022-11-27T22:19:14.232Z,7.50
2022-11-27T22:21:42.639Z,11.48
2022-11-27T22:24:15.139Z,12.32
2022-11-27T22:26:45.723Z,10.70
2022-11-27T22:29:14.166Z,13.75
2022-11-27T22:31:41.912Z,13.13
2022-11-27T22:34:09.246Z,11.20
2022-11-27T22:36:36.762Z,11.90
2022-11-27T22:39:07.523Z,11.95
2022-11-27T22:41:37.567Z,13.65
2022-11-27T22:44:06.879Z,13.32
2022-11-27T22:46:36.147Z,14.15
2022-11-27T22:49:06.372Z,14.80
2022-11-27T22:51:35.648Z,15.40
2022-11-27T22:54:04.803Z,15.75
2022-11-27T22:56:33.843Z,15.40
2022-11-27T22:59:30.590Z,15.23
2022-11-27T23:01:48.983Z,15.02
2022-11-27T23:04:17.164Z,15.52
2022-11-27T23:06:48.564Z,16.00
2022-11-27T23:09:18.089Z,16.85
2022-11-27T23:11:45.506Z,16.45
2022-11-27T23:14:12.825Z,15.98
2022-11-27T23:16:40.217Z,15.38
2022-11-27T23:19:07.808Z,13.00
2022-11-27T23:26:32.655Z,9.30
2022-11-27T23:28:59.999Z,10.02
2022-11-27T23:34:03.804Z,10.00
2022-11-27T23:36:32.330Z,10.68
2022-11-27T23:39:01.142Z,10.35
2022-11-27T23:41:29.110Z,10.63
2022-11-27T23:43:57.142Z,10.95
2022-11-27T23:46:26.960Z,11.63
2022-11-27T23:48:55.846Z,11.55
2022-11-27T23:51:26.073Z,12.27
2022-11-27T23:53:54.098Z,9.90
2022-11-27T23:56:24.322Z,9.68
2022-11-27T23:58:53.384Z,9.48
